createdAt,value
2023-02-02T00:01:53.895Z,12.30
2023-02-02T00:04:33.524Z,14.02
2023-02-02T00:07:02.826Z,11.55
2023-02-02T00:09:32.059Z,17.98
2023-02-02T00:12:01.269Z,13.90
2023-02-02T00:14:28.525Z,7.25
2023-02-02T00:16:58.017Z,13.82
2023-02-02T00:19:33.510Z,10.63
2023-02-02T00:22:00.425Z,8.45
2023-02-02T00:24:27.507Z,8.55
2023-02-02T00:26:59.800Z,8.73
2023-02-02T00:29:30.031Z,12.63
2023-02-02T00:31:57.322Z,8.48
2023-02-02T00:34:24.657Z,12.52
2023-02-02T00:36:52.059Z,7.47
2023-02-02T00:39:23.149Z,8.05
2023-02-02T00:41:50.136Z,13.98
2023-02-02T00:44:35.586Z,11.07
2023-02-02T00:47:03.859Z,9.68
2023-02-02T00:49:31.041Z,11.63
2023-02-02T00:51:58.219Z,8.48
2023-02-02T00:54:25.374Z,13.10
2023-02-02T00:56:56.400Z,7.15
2023-02-02T00:59:23.798Z,11.10
2023-02-02T01:01:51.449Z,9.15
2023-02-02T01:04:18.541Z,5.13
2023-02-02T01:06:47.874Z,14.68
2023-02-02T01:09:14.933Z,8.93
2023-02-02T01:11:42.287Z,14.88
2023-02-02T01:14:09.292Z,13.23
2023-02-02T01:16:36.410Z,8.57
2023-02-02T01:19:03.999Z,11.80
2023-02-02T01:21:31.029Z,12.63
2023-02-02T01:23:58.117Z,11.85
2023-02-02T01:26:25.133Z,8.00
2023-02-02T01:28:52.143Z,9.13
2023-02-02T01:31:21.328Z,9.52
2023-02-02T01:33:50.153Z,5.45
2023-02-02T01:36:21.558Z,6.72
2023-02-02T01:38:49.761Z,7.93
2023-02-02T01:41:22.120Z,10.88
2023-02-02T01:44:45.665Z,8.25
2023-02-02T01:47:13.375Z,9.13
2023-02-02T01:49:41.412Z,10.35
2023-02-02T01:52:10.660Z,16.15
2023-02-02T01:54:58.399Z,10.38
2023-02-02T01:57:36.352Z,9.35
2023-02-02T02:00:09.028Z,10.23
2023-02-02T02:02:45.948Z,10.20
2023-02-02T02:05:19.852Z,11.05
2023-02-02T02:07:50.477Z,18.33
2023-02-02T02:10:18.775Z,9.10
2023-02-02T02:12:48.643Z,15.10
2023-02-02T02:15:34.561Z,7.88
2023-02-02T02:18:35.275Z,12.63
2023-02-02T02:22:15.831Z,9.40
2023-02-02T02:25:51.852Z,7.30
2023-02-02T02:29:03.122Z,9.70
2023-02-02T02:31:56.035Z,9.75
2023-02-02T02:34:44.749Z,13.10
2023-02-02T02:37:38.891Z,7.28
2023-02-02T02:40:34.626Z,14.50
2023-02-02T02:43:15.597Z,11.45
2023-02-02T02:45:44.809Z,6.15
2023-02-02T02:48:13.642Z,8.52
2023-02-02T02:50:40.768Z,8.35
2023-02-02T02:53:16.547Z,9.73
2023-02-02T02:56:25.102Z,8.00
2023-02-02T02:59:05.307Z,13.07
2023-02-02T03:02:08.746Z,9.63
2023-02-02T03:05:08.992Z,11.38
2023-02-02T03:07:42.935Z,9.80
2023-02-02T03:10:13.787Z,6.68
2023-02-02T03:12:49.350Z,10.05
2023-02-02T03:15:17.977Z,10.07
2023-02-02T03:17:52.503Z,6.55
2023-02-02T03:20:22.853Z,11.15
2023-02-02T03:22:51.302Z,5.93
2023-02-02T03:25:18.809Z,7.78
2023-02-02T03:27:45.831Z,12.50
2023-02-02T03:30:14.167Z,8.85
2023-02-02T03:32:41.730Z,9.40
2023-02-02T03:35:11.172Z,10.63
2023-02-02T03:37:38.513Z,9.93
2023-02-02T03:40:07.108Z,10.70
2023-02-02T03:42:34.139Z,10.02
2023-02-02T03:45:01.152Z,13.95
2023-02-02T03:47:29.929Z,12.13
2023-02-02T03:49:57.510Z,18.23
2023-02-02T03:52:26.683Z,8.95
2023-02-02T03:54:53.911Z,10.95
2023-02-02T03:57:20.814Z,10.75
2023-02-02T03:59:47.781Z,11.68
2023-02-02T04:02:14.818Z,7.30
2023-02-02T04:04:41.736Z,7.03
2023-02-02T04:07:08.644Z,9.70
2023-02-02T04:09:35.632Z,14.40
2023-02-02T04:12:02.590Z,10.07
2023-02-02T04:14:29.445Z,6.85
2023-02-02T04:16:56.329Z,14.88
2023-02-02T04:19:25.997Z,7.82
2023-02-02T04:21:53.597Z,11.50
2023-02-02T04:24:20.528Z,10.88
2023-02-02T04:26:47.728Z,14.05
2023-02-02T04:29:14.940Z,12.07
2023-02-02T04:31:42.543Z,11.30
2023-02-02T04:34:09.552Z,9.13
2023-02-02T04:36:36.410Z,8.93
2023-02-02T04:39:03.929Z,10.23
2023-02-02T04:41:32.312Z,9.45
2023-02-02T04:43:59.192Z,7.95
2023-02-02T04:46:26.609Z,8.07
2023-02-02T04:48:53.548Z,11.00
2023-02-02T04:51:20.421Z,9.45
2023-02-02T04:53:47.372Z,8.70
2023-02-02T04:56:18.917Z,8.07
2023-02-02T04:58:46.402Z,8.93
2023-02-02T05:01:20.196Z,9.45
2023-02-02T05:03:48.527Z,4.90
2023-02-02T05:06:16.401Z,6.85
2023-02-02T05:08:44.120Z,8.75
2023-02-02T05:11:18.510Z,13.07
2023-02-02T05:16:17.910Z,8.75
2023-02-02T05:18:59.469Z,11.77
2023-02-02T05:21:26.942Z,12.35
2023-02-02T05:23:53.911Z,8.55
2023-02-02T05:26:26.823Z,8.57
2023-02-02T05:28:54.171Z,7.55
2023-02-02T05:31:21.245Z,10.95
2023-02-02T05:33:48.329Z,10.20
2023-02-02T05:36:15.299Z,11.35
2023-02-02T05:38:42.263Z,12.13
2023-02-02T05:41:09.268Z,8.93
2023-02-02T05:43:36.211Z,10.35
2023-02-02T05:46:04.061Z,8.15
2023-02-02T05:48:31.101Z,8.18
2023-02-02T05:51:11.374Z,12.98
2023-02-02T05:53:38.384Z,13.90
2023-02-02T05:56:05.847Z,11.70
2023-02-02T05:58:32.943Z,9.40
2023-02-02T06:01:00.256Z,15.85
2023-02-02T06:03:27.631Z,14.38
2023-02-02T06:05:54.686Z,17.02
2023-02-02T06:08:21.771Z,15.50
2023-02-02T06:10:49.394Z,18.02
2023-02-02T06:13:16.287Z,16.58
2023-02-02T06:15:43.448Z,10.65
2023-02-02T06:18:11.052Z,15.80
2023-02-02T06:20:38.787Z,14.05
2023-02-02T06:23:06.854Z,15.95
2023-02-02T06:25:34.544Z,19.75
2023-02-02T06:28:01.721Z,19.67
2023-02-02T06:30:29.040Z,21.45
2023-02-02T06:32:56.092Z,27.27
2023-02-02T06:35:23.368Z,24.92
2023-02-02T06:37:50.483Z,35.80
2023-02-02T06:40:20.881Z,33.53
2023-02-02T06:42:47.842Z,30.90
2023-02-02T06:45:15.086Z,28.10
2023-02-02T06:47:42.664Z,30.55
2023-02-02T06:50:10.642Z,37.35
2023-02-02T06:52:37.575Z,34.30
2023-02-02T06:55:05.119Z,30.98
2023-02-02T06:57:32.352Z,30.33
2023-02-02T06:59:59.701Z,32.30
2023-02-02T07:02:26.996Z,32.65
2023-02-02T07:04:54.136Z,32.58
2023-02-02T07:07:21.218Z,36.70
2023-02-02T07:09:48.160Z,26.15
2023-02-02T07:12:27.558Z,30.88
2023-02-02T07:14:54.684Z,29.67
2023-02-02T07:17:23.745Z,32.97
2023-02-02T07:19:51.152Z,29.00
2023-02-02T07:22:18.409Z,29.42
2023-02-02T07:24:45.295Z,30.15
2023-02-02T07:27:12.347Z,24.95
2023-02-02T07:29:39.439Z,27.73
2023-02-02T07:32:06.557Z,32.55
2023-02-02T07:34:33.885Z,27.75
2023-02-02T07:37:00.944Z,30.27
2023-02-02T07:39:27.863Z,29.30
2023-02-02T07:41:55.157Z,31.92
2023-02-02T07:44:30.908Z,31.58
2023-02-02T07:46:58.417Z,29.35
2023-02-02T07:49:25.717Z,27.52
2023-02-02T07:51:53.394Z,37.30
2023-02-02T07:54:21.519Z,27.67
2023-02-02T07:56:48.833Z,26.73
2023-02-02T07:59:16.480Z,28.75
2023-02-02T08:01:43.684Z,32.28
2023-02-02T08:04:10.734Z,29.52
2023-02-02T08:06:40.019Z,35.80
2023-02-02T08:09:09.235Z,32.83
2023-02-02T08:11:39.964Z,30.88
2023-02-02T08:14:07.961Z,29.45
2023-02-02T08:16:36.155Z,31.88
2023-02-02T08:19:03.703Z,34.50
2023-02-02T08:21:34.882Z,31.35
2023-02-02T08:24:03.250Z,30.17
2023-02-02T08:26:32.097Z,27.58
2023-02-02T08:29:03.694Z,28.58
2023-02-02T08:31:38.027Z,26.40
2023-02-02T08:34:06.138Z,28.05
2023-02-02T08:36:35.589Z,23.48
2023-02-02T08:39:07.492Z,25.13
2023-02-02T08:41:35.066Z,31.17
2023-02-02T08:44:05.248Z,25.10
2023-02-02T08:46:33.134Z,25.55
2023-02-02T08:49:00.252Z,27.13
2023-02-02T08:51:27.743Z,27.65
2023-02-02T08:53:55.119Z,27.08
2023-02-02T08:56:23.641Z,27.52
2023-02-02T08:58:56.236Z,24.15
2023-02-02T09:01:27.090Z,26.25
2023-02-02T09:04:00.327Z,23.35
2023-02-02T09:06:39.303Z,28.10
2023-02-02T09:09:11.156Z,27.90
2023-02-02T09:11:40.727Z,26.35
2023-02-02T09:14:09.249Z,26.52
2023-02-02T09:16:36.681Z,22.33
2023-02-02T09:19:05.239Z,21.30
2023-02-02T09:21:36.977Z,27.00
2023-02-02T09:24:09.941Z,26.52
2023-02-02T09:26:38.794Z,18.00
2023-02-02T09:29:08.489Z,20.58
2023-02-02T09:31:37.639Z,20.55
2023-02-02T09:34:08.767Z,18.33
2023-02-02T09:36:38.035Z,19.13
2023-02-02T09:39:06.511Z,22.23
2023-02-02T09:41:39.795Z,20.85
2023-02-02T09:44:30.230Z,27.98
2023-02-02T09:47:17.647Z,19.33
2023-02-02T09:50:25.942Z,16.58
2023-02-02T09:53:05.954Z,13.02
2023-02-02T09:55:38.924Z,15.13
2023-02-02T09:58:30.385Z,13.88
2023-02-02T10:01:15.824Z,10.35
2023-02-02T10:04:13.647Z,20.05
2023-02-02T10:06:45.097Z,20.17
2023-02-02T10:09:40.544Z,14.73
2023-02-02T10:12:40.911Z,14.40
2023-02-02T10:15:24.391Z,12.55
2023-02-02T10:18:00.805Z,14.77
2023-02-02T10:21:28.844Z,10.90
2023-02-02T10:23:58.442Z,10.40
2023-02-02T10:26:46.122Z,11.98
2023-02-02T10:29:28.070Z,7.63
2023-02-02T10:32:22.640Z,10.35
2023-02-02T10:35:25.233Z,13.82
2023-02-02T10:38:42.724Z,11.25
2023-02-02T10:41:32.341Z,12.13
2023-02-02T10:44:18.055Z,9.63
2023-02-02T10:46:54.054Z,10.35
2023-02-02T10:49:33.806Z,12.73
2023-02-02T10:52:17.645Z,8.77
2023-02-02T10:58:12.259Z,9.45
2023-02-02T11:00:48.616Z,13.45
2023-02-02T11:03:20.204Z,13.18
2023-02-02T11:06:06.010Z,14.52
2023-02-02T11:08:45.463Z,8.38
2023-02-02T11:11:33.273Z,7.43
2023-02-02T11:14:09.449Z,9.07
2023-02-02T11:16:45.195Z,6.80
2023-02-02T11:19:18.082Z,9.30
2023-02-02T11:21:54.930Z,13.20
2023-02-02T11:24:28.482Z,7.20
2023-02-02T11:27:07.399Z,8.65
2023-02-02T11:29:40.513Z,9.65
2023-02-02T11:32:27.466Z,10.60
2023-02-02T11:35:17.839Z,9.00
2023-02-02T11:38:13.869Z,10.55
2023-02-02T11:40:53.053Z,13.07
2023-02-02T11:43:33.452Z,11.57
2023-02-02T11:46:08.152Z,7.63
2023-02-02T11:48:39.374Z,8.02
2023-02-02T11:51:08.385Z,6.43
2023-02-02T11:53:41.494Z,8.73
2023-02-02T11:56:29.411Z,5.90
2023-02-02T11:59:03.789Z,5.70
2023-02-02T12:01:39.857Z,5.05
2023-02-02T12:04:25.857Z,5.53
2023-02-02T12:06:52.983Z,5.28
2023-02-02T12:09:24.069Z,5.25
2023-02-02T12:12:03.513Z,7.28
2023-02-02T12:14:45.962Z,3.70
2023-02-02T12:17:41.829Z,6.97
2023-02-02T12:20:29.768Z,5.97
2023-02-02T12:23:14.740Z,3.55
2023-02-02T12:26:00.569Z,6.20
2023-02-02T12:28:58.688Z,4.50
2023-02-02T12:31:48.942Z,3.63
2023-02-02T12:35:00.703Z,3.20
2023-02-02T12:38:06.232Z,3.17
2023-02-02T12:40:55.823Z,5.65
2023-02-02T12:43:46.429Z,5.28
2023-02-02T12:46:22.569Z,6.78
2023-02-02T12:48:58.462Z,5.40
2023-02-02T12:52:09.961Z,5.95
2023-02-02T12:55:02.560Z,3.72
2023-02-02T12:57:59.704Z,4.20
2023-02-02T13:00:42.755Z,2.22
2023-02-02T13:03:28.253Z,4.95
2023-02-02T13:06:21.468Z,1.77
2023-02-02T13:08:57.970Z,1.45
2023-02-02T13:11:44.861Z,2.95
2023-02-02T13:14:17.022Z,2.88
2023-02-02T13:16:50.543Z,2.83
2023-02-02T13:19:33.382Z,3.42
2023-02-02T13:22:04.970Z,4.28
2023-02-02T13:24:37.371Z,3.97
2023-02-02T13:27:07.628Z,3.60
2023-02-02T13:29:48.212Z,3.15
2023-02-02T13:32:29.297Z,7.05
2023-02-02T13:35:18.669Z,3.70
2023-02-02T13:37:59.176Z,2.65
2023-02-02T13:40:43.935Z,3.25
2023-02-02T13:43:20.061Z,5.35
2023-02-02T13:46:12.319Z,2.20
2023-02-02T13:49:13.407Z,1.98
2023-02-02T13:52:15.025Z,4.10
2023-02-02T13:55:08.756Z,6.13
2023-02-02T13:57:58.597Z,1.60
2023-02-02T14:00:33.616Z,1.90
2023-02-02T14:03:06.231Z,2.60
2023-02-02T14:05:41.593Z,4.88
2023-02-02T14:08:21.840Z,3.55
2023-02-02T14:10:51.852Z,4.05
2023-02-02T14:13:44.488Z,4.35
2023-02-02T14:16:33.037Z,2.40
2023-02-02T14:19:12.878Z,2.47
2023-02-02T14:21:39.786Z,2.83
2023-02-02T14:24:26.223Z,7.03
2023-02-02T14:26:59.723Z,5.93
2023-02-02T14:29:31.486Z,2.92
2023-02-02T14:32:02.798Z,2.55
2023-02-02T14:34:34.521Z,5.07
2023-02-02T14:37:29.876Z,3.78
2023-02-02T14:40:12.930Z,2.15
2023-02-02T14:43:39.471Z,2.33
2023-02-02T14:46:15.901Z,4.95
2023-02-02T14:49:03.062Z,3.90
2023-02-02T14:51:33.421Z,6.75
2023-02-02T14:54:06.996Z,4.70
2023-02-02T14:56:52.354Z,5.38
2023-02-02T14:59:28.956Z,6.50
2023-02-02T15:02:15.752Z,2.17
2023-02-02T15:04:47.941Z,3.50
2023-02-02T15:07:52.127Z,6.25
2023-02-02T15:11:01.170Z,9.10
2023-02-02T15:13:37.653Z,4.10
2023-02-02T15:16:18.972Z,8.00
2023-02-02T15:18:58.233Z,6.22
2023-02-02T15:21:28.107Z,4.82
2023-02-02T15:23:57.213Z,2.67
2023-02-02T15:26:37.902Z,15.82
2023-02-02T15:29:19.710Z,3.58
2023-02-02T15:31:53.565Z,4.03
2023-02-02T15:37:10.746Z,2.95
2023-02-02T15:39:43.459Z,5.70
2023-02-02T15:42:37.949Z,5.35
2023-02-02T15:45:05.799Z,4.80
2023-02-02T15:47:40.612Z,6.30
2023-02-02T15:50:20.573Z,4.47
2023-02-02T15:52:50.709Z,4.68
2023-02-02T15:55:33.668Z,2.22
2023-02-02T15:58:02.939Z,5.53
2023-02-02T16:00:35.237Z,4.45
2023-02-02T16:03:15.340Z,4.18
2023-02-02T16:05:48.142Z,4.40
2023-02-02T16:08:26.189Z,3.83
2023-02-02T16:11:05.386Z,3.97
2023-02-02T16:13:33.649Z,2.72
2023-02-02T16:16:20.128Z,6.60
2023-02-02T16:18:47.734Z,2.38
2023-02-02T16:21:24.161Z,6.25
2023-02-02T16:23:55.976Z,5.18
2023-02-02T16:26:29.069Z,5.80
2023-02-02T16:28:57.111Z,6.30
2023-02-02T16:31:25.825Z,3.90
2023-02-02T16:33:52.916Z,3.35
2023-02-02T16:36:26.233Z,5.70
2023-02-02T16:38:55.318Z,4.20
2023-02-02T16:41:35.011Z,5.43
2023-02-02T16:44:36.328Z,7.65
2023-02-02T16:47:07.339Z,11.50
2023-02-02T16:49:35.292Z,3.67
2023-02-02T16:52:21.849Z,5.82
2023-02-02T16:54:55.569Z,10.10
2023-02-02T16:57:34.370Z,8.07
2023-02-02T17:00:09.310Z,6.57
2023-02-02T17:02:41.036Z,7.00
2023-02-02T17:05:21.768Z,6.32
2023-02-02T17:08:05.656Z,5.13
2023-02-02T17:10:43.793Z,6.68
2023-02-02T17:13:36.658Z,4.80
2023-02-02T17:16:04.308Z,7.75
2023-02-02T17:18:31.646Z,4.10
2023-02-02T17:21:07.357Z,3.75
2023-02-02T17:23:36.933Z,3.92
2023-02-02T17:26:07.590Z,3.17
2023-02-02T17:28:38.201Z,2.38
2023-02-02T17:31:11.960Z,3.15
2023-02-02T17:33:39.898Z,1.75
2023-02-02T17:36:07.620Z,6.05
2023-02-02T17:38:34.719Z,5.05
2023-02-02T17:41:03.458Z,2.20
2023-02-02T17:43:32.701Z,3.40
2023-02-02T17:46:00.273Z,5.95
2023-02-02T17:48:27.776Z,3.30
2023-02-02T17:50:55.136Z,5.05
2023-02-02T17:53:22.967Z,8.15
2023-02-02T17:55:51.426Z,5.43
2023-02-02T17:58:19.095Z,6.65
2023-02-02T18:00:53.529Z,6.07
2023-02-02T18:05:53.877Z,4.85
2023-02-02T18:08:20.925Z,5.35
2023-02-02T18:10:47.912Z,4.97
2023-02-02T18:13:17.360Z,5.53
2023-02-02T18:15:44.423Z,6.82
2023-02-02T18:18:12.578Z,6.78
2023-02-02T18:20:47.090Z,3.47
2023-02-02T18:23:15.811Z,8.85
2023-02-02T18:25:43.718Z,5.78
2023-02-02T18:28:11.110Z,13.90
2023-02-02T18:30:40.393Z,6.28
2023-02-02T18:33:11.809Z,6.65
2023-02-02T18:35:47.419Z,7.88
2023-02-02T18:38:14.880Z,26.00
2023-02-02T18:40:42.086Z,7.13
2023-02-02T18:43:09.517Z,7.80
2023-02-02T18:45:36.833Z,10.85
2023-02-02T18:48:04.433Z,7.70
2023-02-02T18:50:31.425Z,6.80
2023-02-02T18:52:58.764Z,9.00
2023-02-02T18:55:26.949Z,8.63
2023-02-02T18:57:54.293Z,9.93
2023-02-02T19:00:22.143Z,10.57
2023-02-02T19:02:49.448Z,10.23
2023-02-02T19:05:35.641Z,13.82
2023-02-02T19:08:04.123Z,13.00
2023-02-02T19:10:31.644Z,5.35
2023-02-02T19:13:19.193Z,6.28
2023-02-02T19:15:49.726Z,6.05
2023-02-02T19:18:23.377Z,5.97
2023-02-02T19:20:52.531Z,6.50
2023-02-02T19:23:23.565Z,8.02
2023-02-02T19:25:54.247Z,10.05
2023-02-02T19:28:31.470Z,8.05
2023-02-02T19:31:01.858Z,8.55
2023-02-02T19:33:39.961Z,7.93
2023-02-02T19:36:21.362Z,6.80
2023-02-02T19:38:52.888Z,8.07
2023-02-02T19:41:24.064Z,10.05
2023-02-02T19:44:11.617Z,8.43
2023-02-02T19:46:44.509Z,8.70
2023-02-02T19:49:16.945Z,10.45
2023-02-02T19:51:53.729Z,7.93
2023-02-02T19:54:32.841Z,11.18
2023-02-02T19:57:13.408Z,12.82
2023-02-02T19:59:43.247Z,8.82
2023-02-02T20:02:44.019Z,24.80
2023-02-02T20:05:10.953Z,18.70
2023-02-02T20:07:41.490Z,26.92
2023-02-02T20:10:21.483Z,13.55
2023-02-02T20:12:50.072Z,16.25
2023-02-02T20:15:36.701Z,17.42
2023-02-02T20:18:18.962Z,15.02
2023-02-02T20:20:58.449Z,25.83
2023-02-02T20:23:45.837Z,18.40
2023-02-02T20:26:36.688Z,12.82
2023-02-02T20:29:39.048Z,15.27
2023-02-02T20:32:19.430Z,14.43
2023-02-02T20:34:46.751Z,10.10
2023-02-02T20:37:13.681Z,7.25
2023-02-02T20:39:42.102Z,10.32
2023-02-02T20:42:09.044Z,12.95
2023-02-02T20:44:36.311Z,7.60
2023-02-02T20:47:03.646Z,11.48
2023-02-02T20:49:31.836Z,19.40
2023-02-02T20:52:02.229Z,8.02
2023-02-02T20:54:29.798Z,9.82
2023-02-02T20:56:56.726Z,8.85
2023-02-02T20:59:23.974Z,6.95
2023-02-02T21:01:51.272Z,8.10
2023-02-02T21:04:19.256Z,8.60
2023-02-02T21:06:48.123Z,7.82
2023-02-02T21:09:16.712Z,3.47
2023-02-02T21:11:43.929Z,11.82
2023-02-02T21:14:10.987Z,12.70
2023-02-02T21:16:38.068Z,5.05
2023-02-02T21:19:05.853Z,8.23
2023-02-02T21:21:32.931Z,8.75
2023-02-02T21:24:00.891Z,5.40
2023-02-02T21:26:30.551Z,5.25
2023-02-02T21:28:58.876Z,6.57
2023-02-02T21:31:26.734Z,10.27
2023-02-02T21:33:54.116Z,4.97
2023-02-02T21:36:34.650Z,4.18
2023-02-02T21:39:33.429Z,8.25
2023-02-02T21:42:09.267Z,6.75
2023-02-02T21:44:52.522Z,7.78
2023-02-02T21:47:33.278Z,10.32
2023-02-02T21:50:28.088Z,10.23
2023-02-02T21:53:18.163Z,10.35
2023-02-02T21:55:59.879Z,8.73
2023-02-02T21:58:35.040Z,7.45
2023-02-02T22:01:24.200Z,10.73
2023-02-02T22:03:51.585Z,8.38
2023-02-02T22:06:42.255Z,7.03
2023-02-02T22:09:12.126Z,10.15
2023-02-02T22:11:47.269Z,6.68
2023-02-02T22:14:19.025Z,4.55
2023-02-02T22:16:50.317Z,5.32
2023-02-02T22:19:38.735Z,6.07
2023-02-02T22:22:08.592Z,7.07
2023-02-02T22:24:36.804Z,4.55
2023-02-02T22:27:03.830Z,6.68
2023-02-02T22:29:35.356Z,9.30
2023-02-02T22:32:02.409Z,8.00
2023-02-02T22:34:29.447Z,8.45
2023-02-02T22:36:56.387Z,8.55
2023-02-02T22:39:23.311Z,9.82
2023-02-02T22:41:50.294Z,9.68
2023-02-02T22:44:17.165Z,10.60
2023-02-02T22:46:44.189Z,14.52
2023-02-02T22:49:11.242Z,13.88
2023-02-02T22:51:38.184Z,13.73
2023-02-02T22:54:05.305Z,16.30
2023-02-02T22:56:32.316Z,17.50
2023-02-02T22:59:01.409Z,18.98
2023-02-02T23:01:28.520Z,10.35
2023-02-02T23:03:55.927Z,10.13
2023-02-02T23:06:23.087Z,12.65
2023-02-02T23:08:50.359Z,13.13
2023-02-02T23:11:17.378Z,18.20
2023-02-02T23:13:44.287Z,12.77
2023-02-02T23:16:11.353Z,14.27
2023-02-02T23:18:38.378Z,16.13
2023-02-02T23:21:05.706Z,9.27
2023-02-02T23:23:32.648Z,13.82
2023-02-02T23:25:59.541Z,11.95
2023-02-02T23:28:26.433Z,11.48
2023-02-02T23:31:12.217Z,9.00
2023-02-02T23:33:39.356Z,10.32
2023-02-02T23:36:06.978Z,10.35
2023-02-02T23:38:33.948Z,8.38
2023-02-02T23:41:00.874Z,8.65
2023-02-02T23:43:28.412Z,9.48
2023-02-02T23:45:55.463Z,16.25
2023-02-02T23:48:22.517Z,7.38
2023-02-02T23:50:49.475Z,9.93
2023-02-02T23:53:17.215Z,11.48
2023-02-02T23:55:48.120Z,10.02
2023-02-02T23:58:15.983Z,9.15
